Time;durP1;ratioP1;P1;durP2;ratioP2;P2;SDS_P1;SDS_P2;PMS_P1;PMS_P2;Temp;Humidity;BMP_temperature;BMP_pressure;BME280_temperature;BME280_humidity;BME280_pressure;Samples;Min_cycle;Max_cycle;Signal;HPM_P1;HPM_P2
2022/12/19 00:00:35;;;;;;;33.20;13.25;;;;;;;-3.96;100.00;101710.78;7391371;19;20134;-50
2022/12/19 00:03:04;;;;;;;30.80;12.73;;;;;;;-3.89;100.00;101719.06;7390063;19;20600;-54
2022/12/19 00:05:38;;;;;;;38.10;15.13;;;;;;;-3.82;100.00;101721.56;7391015;19;20237;-51
2022/12/19 00:08:08;;;;;;;29.05;13.15;;;;;;;-3.77;100.00;101723.00;7390047;19;20194;-56
2022/12/19 00:10:46;;;;;;;35.97;14.60;;;;;;;-3.85;100.00;101718.69;7391162;19;20131;-55
2022/12/19 00:13:22;;;;;;;34.40;14.75;;;;;;;-3.81;100.00;101721.75;7389361;19;20202;-55
2022/12/19 00:15:51;;;;;;;35.30;13.45;;;;;;;-3.88;100.00;101714.19;7390140;19;20167;-58
2022/12/19 00:18:21;;;;;;;35.00;14.77;;;;;;;-3.83;100.00;101713.13;7389523;19;20194;-56
2022/12/19 00:20:58;;;;;;;36.20;14.20;;;;;;;-3.81;100.00;101708.22;7390683;19;20154;-55
2022/12/19 00:23:29;;;;;;;33.90;13.13;;;;;;;-3.84;100.00;101696.16;7388276;19;20661;-54
2022/12/19 00:26:09;;;;;;;39.65;16.05;;;;;;;-3.85;100.00;101690.97;7389777;19;20167;-54
2022/12/19 00:28:41;;;;;;;35.03;14.85;;;;;;;-3.83;100.00;101682.84;7388552;19;20186;-57
2022/12/19 00:31:11;;;;;;;35.10;14.18;;;;;;;-3.85;100.00;101686.78;7391318;19;20127;-53
2022/12/19 00:33:41;;;;;;;35.33;14.80;;;;;;;-3.76;100.00;101676.84;7387876;19;20201;-56
2022/12/19 00:36:13;;;;;;;30.90;13.20;;;;;;;-3.83;100.00;101679.41;7389339;19;20170;-55
2022/12/19 00:38:46;;;;;;;37.78;15.60;;;;;;;-3.83;100.00;101671.84;7387734;19;20198;-56
2022/12/19 00:41:17;;;;;;;28.48;12.77;;;;;;;-3.82;100.00;101671.13;7390293;19;20131;-55
2022/12/19 00:43:49;;;;;;;31.92;14.23;;;;;;;-3.76;100.00;101675.97;7387007;19;20190;-54
2022/12/19 00:46:19;;;;;;;38.35;14.98;;;;;;;-3.84;100.00;101658.31;7393412;19;20200;-52
2022/12/19 00:48:49;;;;;;;39.97;13.50;;;;;;;-3.77;100.00;101664.06;7387821;19;20201;-53
2022/12/19 00:51:24;;;;;;;32.80;13.93;;;;;;;-3.77;100.00;101654.88;7390304;19;20127;-56
2022/12/19 00:53:55;;;;;;;32.38;13.60;;;;;;;-3.87;100.00;101652.94;7387530;19;20208;-52
2022/12/19 00:56:26;;;;;;;29.52;12.38;;;;;;;-3.89;100.00;101658.53;7389117;19;20163;-54
2022/12/19 00:58:59;;;;;;;36.92;14.15;;;;;;;-3.91;100.00;101657.47;7387172;19;20190;-54
2022/12/19 01:01:32;;;;;;;34.22;14.05;;;;;;;-3.94;100.00;101653.84;7389228;19;20127;-57
2022/12/19 01:04:02;;;;;;;36.78;15.25;;;;;;;-3.85;100.00;101640.50;7391683;19;20190;-53
2022/12/19 01:06:53;;;;;;;32.22;12.85;;;;;;;-3.87;100.00;101645.38;7387884;19;20142;-52
2022/12/19 01:09:29;;;;;;;32.30;13.05;;;;;;;-3.82;100.00;101650.94;7393994;19;20134;-56
2022/12/19 01:14:43;;;;;;;34.15;13.40;;;;;;;-3.70;100.00;101636.31;7397069;19;20162;-55
2022/12/19 01:17:13;;;;;;;29.40;12.43;;;;;;;-3.69;100.00;101644.03;7394718;19;20700;-50
2022/12/19 01:19:43;;;;;;;29.92;13.45;;;;;;;-3.57;100.00;101641.09;7396850;19;20183;-56
2022/12/19 01:22:13;;;;;;;30.45;13.40;;;;;;;-3.58;100.00;101636.78;7392884;19;20194;-56
2022/12/19 01:24:43;;;;;;;42.85;16.13;;;;;;;-3.57;100.00;101628.50;7396673;19;20166;-54
2022/12/19 01:27:13;;;;;;;29.95;13.60;;;;;;;-3.66;100.00;101638.44;7394596;19;20210;-54
2022/12/19 01:29:45;;;;;;;35.63;14.10;;;;;;;-3.67;100.00;101635.03;7396011;19;20138;-55
2022/12/19 01:32:22;;;;;;;34.40;14.35;;;;;;;-3.64;100.00;101636.09;7391695;19;20231;-52
2022/12/19 01:34:51;;;;;;;32.25;11.85;;;;;;;-3.64;100.00;101621.84;7395958;19;20159;-55
2022/12/19 01:37:21;;;;;;;27.80;12.00;;;;;;;-3.61;100.00;101616.25;7391992;19;20194;-58
2022/12/19 01:39:50;;;;;;;30.58;12.95;;;;;;;-3.56;100.00;101622.72;7392309;19;20135;-55
2022/12/19 01:42:24;;;;;;;31.98;12.40;;;;;;;-3.49;100.00;101612.56;7386968;19;20236;-53
2022/12/19 01:45:22;;;;;;;33.15;13.88;;;;;;;-3.56;100.00;101600.91;7391188;19;20162;-54
2022/12/19 01:47:57;;;;;;;35.65;12.93;;;;;;;-3.63;100.00;101597.53;7388786;19;21037;-51
2022/12/19 01:50:31;;;;;;;33.42;14.00;;;;;;;-3.67;100.00;101602.25;7391394;19;20142;-55
2022/12/19 01:53:01;;;;;;;30.65;13.30;;;;;;;-3.63;100.00;101602.56;7390774;19;20193;-56
2022/12/19 01:55:30;;;;;;;33.67;13.95;;;;;;;-3.57;100.00;101603.25;7392426;19;20166;-55
2022/12/19 01:58:00;;;;;;;33.53;13.23;;;;;;;-3.54;100.00;101594.41;7391435;19;20194;-57
2022/12/19 02:00:34;;;;;;;28.05;11.77;;;;;;;-3.55;100.00;101601.78;7393284;19;20155;-55
2022/12/19 02:03:08;;;;;;;32.40;13.27;;;;;;;-3.53;100.00;101592.78;7390022;19;20230;-55
2022/12/19 02:05:41;;;;;;;31.10;13.85;;;;;;;-3.48;100.00;101589.16;7392930;19;20646;-56
2022/12/19 02:08:11;;;;;;;30.48;11.60;;;;;;;-3.49;100.00;101582.28;7388153;19;20692;-55
2022/12/19 02:10:40;;;;;;;31.98;13.15;;;;;;;-3.48;100.00;101573.09;7393413;19;20134;-59
2022/12/19 02:13:10;;;;;;;28.77;12.38;;;;;;;-3.45;100.00;101566.78;7392351;19;20214;-56
2022/12/19 02:15:53;;;;;;;29.92;13.10;;;;;;;-3.47;100.00;101555.63;7391484;19;20166;-53
2022/12/19 02:18:32;;;;;;;30.58;12.55;;;;;;;-3.48;100.00;101548.78;7390702;19;20907;-56
2022/12/19 02:21:16;;;;;;;30.92;13.50;;;;;;;-3.28;100.00;101547.56;7392713;19;20150;-55
2022/12/19 02:24:15;;;;;;;34.28;14.00;;;;;;;-3.04;100.00;101533.28;7391284;19;20194;-55
2022/12/19 02:26:57;;;;;;;29.60;13.40;;;;;;;-2.79;100.00;101528.34;7390995;19;20619;-55
2022/12/19 02:29:51;;;;;;;32.10;14.10;;;;;;;-2.61;100.00;101525.28;7390470;19;20516;-54
2022/12/19 02:32:27;;;;;;;29.35;12.57;;;;;;;-2.94;100.00;101517.47;7395370;19;20237;-55
2022/12/19 02:35:00;;;;;;;31.25;13.10;;;;;;;-2.85;100.00;101519.41;7394778;19;20569;-57
2022/12/19 02:37:32;;;;;;;33.35;12.35;;;;;;;-2.66;100.00;101520.47;7392739;19;20197;-54
2022/12/19 02:40:04;;;;;;;35.45;11.90;;;;;;;-2.59;100.00;101522.91;7394890;19;20123;-53
2022/12/19 02:42:37;;;;;;;29.50;13.10;;;;;;;-2.52;100.00;101515.25;7390550;19;20198;-54
2022/12/19 02:45:09;;;;;;;31.27;13.32;;;;;;;-2.75;100.00;101516.25;7394082;19;20162;-54
2022/12/19 02:47:41;;;;;;;33.25;13.85;;;;;;;-2.70;100.00;101509.16;7392332;19;20190;-53
2022/12/19 02:50:11;;;;;;;50.05;20.23;;;;;;;-1.47;100.00;101528.50;7393955;19;20123;-54
2022/12/19 02:52:49;;;;;;;34.60;13.73;;;;;;;-2.01;100.00;101518.81;7392116;19;20182;-55
2022/12/19 02:55:24;;;;;;;34.67;16.20;;;;;;;-2.14;100.00;101526.72;7395879;19;20174;-54
2022/12/19 02:58:11;;;;;;;45.08;19.45;;;;;;;-2.24;100.00;101524.88;7392705;19;20189;-52
2022/12/19 03:00:46;;;;;;;35.88;13.32;;;;;;;-1.92;100.00;101519.75;7393908;19;20127;-52
2022/12/19 03:03:23;;;;;;;30.23;11.52;;;;;;;-2.21;100.00;101517.63;7393875;19;20863;-53
2022/12/19 03:05:58;;;;;;;30.05;13.73;;;;;;;-2.64;100.00;101517.38;7392799;19;20162;-56
2022/12/19 03:08:31;;;;;;;29.75;12.32;;;;;;;-2.84;100.00;101512.72;7391160;19;20186;-53
2022/12/19 03:11:03;;;;;;;27.60;13.10;;;;;;;-2.63;100.00;101509.06;7394683;19;20134;-54
2022/12/19 03:13:35;;;;;;;29.27;12.90;;;;;;;-2.51;100.00;101514.50;7388924;19;20629;-53
2022/12/19 03:16:06;;;;;;;29.58;13.55;;;;;;;-2.31;100.00;101510.66;7392433;19;20182;-52
2022/12/19 03:18:39;;;;;;;26.27;12.48;;;;;;;-2.44;100.00;101508.50;7393716;19;20221;-52
2022/12/19 03:21:13;;;;;;;30.88;13.18;;;;;;;-2.70;100.00;101486.41;7393748;19;20127;-53
2022/12/19 03:23:43;;;;;;;38.05;13.70;;;;;;;-2.74;100.00;101496.91;7390698;19;20194;-56
2022/12/19 03:26:19;;;;;;;26.92;13.05;;;;;;;-2.58;100.00;101491.84;7391815;19;20195;-55
2022/12/19 03:28:52;;;;;;;34.28;14.13;;;;;;;-2.68;100.00;101489.97;7389882;19;20196;-54
2022/12/19 03:31:24;;;;;;;32.42;14.23;;;;;;;-2.66;100.00;101486.00;7393578;19;20142;-54
2022/12/19 03:33:58;;;;;;;33.42;14.88;;;;;;;-2.60;100.00;101484.09;7389942;19;20194;-51
2022/12/19 03:36:30;;;;;;;32.88;13.80;;;;;;;-2.65;100.00;101485.28;7391588;19;20165;-54
2022/12/19 03:39:01;;;;;;;32.13;14.55;;;;;;;-2.61;100.00;101482.31;7389442;19;20190;-54
2022/12/19 03:44:17;;;;;;;26.95;12.90;;;;;;;-2.36;100.00;101489.09;7392077;19;20239;-57
2022/12/19 03:46:51;;;;;;;26.38;13.60;;;;;;;-2.58;100.00;101486.81;7390839;19;20499;-53
2022/12/19 03:49:23;;;;;;;31.63;13.82;;;;;;;-2.46;100.00;101492.28;7391850;19;20123;-55
2022/12/19 03:51:55;;;;;;;32.90;14.05;;;;;;;-2.21;100.00;101494.88;7390249;19;20123;-51
2022/12/19 03:54:29;;;;;;;28.25;12.38;;;;;;;-2.41;100.00;101470.00;7392597;19;20130;-53
2022/12/19 03:57:02;;;;;;;28.33;12.05;;;;;;;-2.49;100.00;101481.81;7390598;19;20134;-52
2022/12/19 03:59:36;;;;;;;29.58;13.20;;;;;;;-2.46;100.00;101490.63;7392510;19;20479;-56
2022/12/19 04:02:06;;;;;;;33.22;14.75;;;;;;;-2.21;100.00;101485.63;7389582;19;20190;-54
2022/12/19 04:04:45;;;;;;;30.42;13.45;;;;;;;-2.30;100.00;101479.63;7392126;19;20130;-54
2022/12/19 04:07:15;;;;;;;31.05;13.48;;;;;;;-2.21;100.00;101479.69;7389207;19;20194;-55
2022/12/19 04:09:46;;;;;;;32.70;13.20;;;;;;;-2.43;100.00;101476.53;7391977;19;20127;-60
2022/12/19 04:12:17;;;;;;;34.45;14.40;;;;;;;-2.34;100.00;101483.47;7389746;19;20218;-51
2022/12/19 04:14:47;;;;;;;27.52;11.88;;;;;;;-2.56;100.00;101479.38;7391342;19;20166;-53
2022/12/19 04:17:22;;;;;;;31.15;14.07;;;;;;;-2.61;100.00;101479.78;7389922;19;20236;-57
2022/12/19 04:19:58;;;;;;;32.08;15.05;;;;;;;-2.51;100.00;101474.06;7391685;19;20142;-53
2022/12/19 04:22:31;;;;;;;32.65;14.07;;;;;;;-2.35;100.00;101480.75;7387990;19;20193;-52
2022/12/19 04:25:04;;;;;;;26.40;13.27;;;;;;;-2.51;100.00;101488.38;7391221;19;21063;-55
2022/12/19 04:27:35;;;;;;;31.67;13.52;;;;;;;-2.50;100.00;101492.69;7389568;19;20194;-57
2022/12/19 04:30:09;;;;;;;34.67;14.30;;;;;;;-2.34;100.00;101488.53;7391222;19;20131;-52
2022/12/19 04:32:39;;;;;;;30.17;12.73;;;;;;;-2.40;100.00;101484.44;7388389;19;20197;-54
2022/12/19 04:35:11;;;;;;;28.70;12.43;;;;;;;-2.36;100.00;101489.97;7390873;19;20183;-57
2022/12/19 04:37:41;;;;;;;33.78;13.45;;;;;;;-2.31;100.00;101483.78;7389481;19;20214;-53
2022/12/19 04:40:12;;;;;;;29.00;12.75;;;;;;;-2.28;100.00;101490.78;7390828;19;20119;-51
2022/12/19 04:42:41;;;;;;;26.52;12.93;;;;;;;-2.38;100.00;101486.38;7389633;19;20221;-56
2022/12/19 04:45:12;;;;;;;25.83;12.52;;;;;;;-2.28;100.00;101478.13;7402500;19;20166;-52
2022/12/19 04:47:41;;;;;;;33.17;13.65;;;;;;;-2.22;100.00;101477.88;7403549;19;20198;-57
2022/12/19 04:50:14;;;;;;;33.72;13.38;;;;;;;-2.02;100.00;101466.44;7405038;19;20488;-52
2022/12/19 04:52:43;;;;;;;27.70;11.98;;;;;;;-2.04;100.00;101459.56;7402419;19;20194;-51
2022/12/19 04:55:12;;;;;;;30.50;13.32;;;;;;;-2.11;100.00;101441.97;7404457;19;20154;-55
2022/12/19 04:57:42;;;;;;;32.38;13.77;;;;;;;-2.20;100.00;101438.50;7404423;19;20194;-55
2022/12/19 05:00:13;;;;;;;31.15;13.40;;;;;;;-2.20;100.00;101441.03;7409208;19;20135;-52
2022/12/19 05:02:42;;;;;;;35.50;14.25;;;;;;;-2.17;100.00;101428.69;7399372;19;20190;-54
2022/12/19 05:05:15;;;;;;;25.00;12.35;;;;;;;-2.11;100.00;101431.84;7404593;19;20166;-52
2022/12/19 05:07:45;;;;;;;31.38;13.20;;;;;;;-2.13;100.00;101433.34;7402518;19;20194;-57
2022/12/19 05:10:16;;;;;;;33.25;14.45;;;;;;;-2.01;100.00;101435.34;7404280;19;20163;-55
2022/12/19 05:12:45;;;;;;;30.15;13.82;;;;;;;-1.96;100.00;101441.75;7402188;19;20182;-51
2022/12/19 05:15:15;;;;;;;27.50;13.80;;;;;;;-1.97;100.00;101448.47;7403327;19;20162;-55
2022/12/19 05:17:45;;;;;;;28.88;13.48;;;;;;;-1.85;100.00;101446.28;7402032;19;20205;-55
2022/12/19 05:20:17;;;;;;;29.67;14.45;;;;;;;-1.91;100.00;101435.53;7403658;19;20852;-54
2022/12/19 05:22:46;;;;;;;33.65;13.00;;;;;;;-1.82;100.00;101430.53;7401700;19;20197;-52
2022/12/19 05:25:16;;;;;;;29.98;12.68;;;;;;;-1.91;100.00;101425.41;7407688;19;20173;-54
2022/12/19 05:27:45;;;;;;;33.80;13.45;;;;;;;-1.97;100.00;101424.78;7401683;19;20213;-55
2022/12/19 05:30:15;;;;;;;37.08;16.75;;;;;;;-1.51;100.00;101438.72;7403390;19;20131;-52
2022/12/19 05:32:44;;;;;;;33.17;15.20;;;;;;;-1.20;100.00;101433.28;7401384;19;21026;-53
2022/12/19 05:35:16;;;;;;;34.92;14.15;;;;;;;-1.54;100.00;101424.09;7402861;19;20167;-51
2022/12/19 05:37:46;;;;;;;30.23;13.82;;;;;;;-1.71;100.00;101411.38;7403713;19;20191;-58
2022/12/19 05:40:15;;;;;;;31.55;14.65;;;;;;;-1.69;100.00;101408.25;7402785;19;20123;-53
2022/12/19 05:42:45;;;;;;;29.98;12.15;;;;;;;-1.59;100.00;101425.25;7399926;19;20265;-52
2022/12/19 05:45:14;;;;;;;38.22;16.83;;;;;;;-1.52;100.00;101420.09;7402451;19;20657;-57
2022/12/19 05:47:46;;;;;;;32.00;14.60;;;;;;;-1.52;100.00;101417.56;7400886;19;20194;-54
2022/12/19 05:50:18;;;;;;;34.47;13.55;;;;;;;-1.52;100.00;101422.63;7402823;19;20220;-53
2022/12/19 05:52:48;;;;;;;28.92;15.48;;;;;;;-1.50;100.00;101427.84;7400350;19;20190;-53
2022/12/19 05:55:18;;;;;;;29.73;14.25;;;;;;;-1.53;100.00;101425.00;7397675;19;20162;-55
2022/12/19 05:57:47;;;;;;;30.40;13.00;;;;;;;-1.65;100.00;101424.63;7393115;19;20190;-54
2022/12/19 06:00:18;;;;;;;33.20;15.07;;;;;;;-1.54;100.00;101426.63;7396028;19;20152;-51
2022/12/19 06:02:47;;;;;;;28.77;12.90;;;;;;;-1.43;100.00;101426.84;7393902;19;20547;-52
2022/12/19 06:05:19;;;;;;;30.73;14.15;;;;;;;-1.40;100.00;101417.00;7393694;19;20166;-55
2022/12/19 06:07:49;;;;;;;40.05;15.75;;;;;;;-1.38;100.00;101420.59;7393365;19;20194;-51
2022/12/19 06:10:18;;;;;;;30.30;12.85;;;;;;;-1.27;100.00;101420.00;7395674;19;20258;-53
2022/12/19 06:12:48;;;;;;;31.48;13.60;;;;;;;-1.30;100.00;101419.72;7393434;19;20206;-55
2022/12/19 06:15:17;;;;;;;36.13;13.50;;;;;;;-1.40;100.00;101417.00;7394919;19;20158;-55
2022/12/19 06:17:47;;;;;;;28.13;12.68;;;;;;;-1.37;100.00;101417.31;7393165;19;20194;-60
2022/12/19 06:20:19;;;;;;;28.42;12.35;;;;;;;-1.31;100.00;101410.34;7396008;19;20701;-53
2022/12/19 06:22:48;;;;;;;28.60;13.88;;;;;;;-1.27;100.00;101403.94;7392234;19;20218;-53
2022/12/19 06:25:17;;;;;;;30.67;14.25;;;;;;;-1.28;100.00;101408.09;7393343;19;20163;-53
2022/12/19 06:27:47;;;;;;;31.80;14.50;;;;;;;-1.17;100.00;101414.25;7392558;19;20573;-56
2022/12/19 06:30:16;;;;;;;30.45;13.02;;;;;;;-1.19;100.00;101412.31;7394743;19;20131;-51
2022/12/19 06:32:46;;;;;;;32.88;14.45;;;;;;;-1.13;100.00;101405.31;7392802;19;20182;-53
2022/12/19 06:35:18;;;;;;;80.40;27.52;;;;;;;-1.14;100.00;101406.94;7393972;19;20166;-56
2022/12/19 06:37:50;;;;;;;27.90;12.60;;;;;;;-0.90;100.00;101414.28;7392714;19;21045;-52
2022/12/19 06:43:03;;;;;;;27.70;13.45;;;;;;;-1.02;100.00;101431.72;7391258;19;20222;-55
2022/12/19 06:45:33;;;;;;;30.48;14.05;;;;;;;-0.91;100.00;101430.22;7392109;19;20167;-55
2022/12/19 06:48:02;;;;;;;30.20;13.32;;;;;;;-0.98;100.00;101432.16;7391983;19;20214;-58
2022/12/19 06:50:34;;;;;;;29.13;12.98;;;;;;;-0.92;100.00;101438.59;7398715;19;20141;-51
2022/12/19 06:53:07;;;;;;;28.02;12.57;;;;;;;-0.91;100.00;101435.31;7392640;19;20190;-52
2022/12/19 06:55:38;;;;;;;32.95;14.93;;;;;;;-0.93;100.00;101446.94;7393437;19;20163;-57
2022/12/19 06:58:07;;;;;;;29.63;12.77;;;;;;;-0.88;100.00;101438.16;7392154;19;20584;-53
2022/12/19 07:00:39;;;;;;;28.73;12.77;;;;;;;-0.98;100.00;101442.28;7394077;19;20131;-53
2022/12/19 07:03:12;;;;;;;31.60;14.50;;;;;;;-0.94;100.00;101451.09;7391596;19;20190;-57
2022/12/19 07:05:44;;;;;;;29.73;14.07;;;;;;;-0.87;100.00;101452.63;7392252;19;20171;-55
2022/12/19 07:08:13;;;;;;;29.85;14.18;;;;;;;-0.86;100.00;101449.31;7391043;19;20230;-51
2022/12/19 07:10:43;;;;;;;30.38;13.90;;;;;;;-0.86;100.00;101465.41;7393637;19;20154;-55
2022/12/19 07:13:13;;;;;;;32.35;13.27;;;;;;;-0.78;100.00;101458.56;7391292;19;20261;-52
2022/12/19 07:15:42;;;;;;;30.50;14.32;;;;;;;-0.83;100.00;101462.28;7391982;19;20198;-53
2022/12/19 07:18:12;;;;;;;27.88;13.20;;;;;;;-0.79;100.00;101466.94;7391838;19;20568;-55
2022/12/19 07:20:44;;;;;;;28.02;12.95;;;;;;;-0.72;100.00;101466.78;7393081;19;20135;-52
2022/12/19 07:23:17;;;;;;;31.65;13.18;;;;;;;-0.72;100.00;101479.44;7390172;19;20194;-56
2022/12/19 07:25:46;;;;;;;27.42;13.30;;;;;;;-0.80;100.00;101477.81;7391913;19;20154;-55
2022/12/19 07:28:16;;;;;;;28.90;12.80;;;;;;;-0.69;100.00;101469.63;7393173;19;20182;-51
2022/12/19 07:30:46;;;;;;;37.53;15.80;;;;;;;-0.64;100.00;101486.91;7393341;19;20130;-54
2022/12/19 07:33:15;;;;;;;29.63;12.20;;;;;;;-0.68;100.00;101483.19;7390431;19;20186;-56
2022/12/19 07:35:52;;;;;;;36.03;13.25;;;;;;;-0.61;100.00;101488.09;7392372;19;20173;-57
2022/12/19 07:38:22;;;;;;;46.38;16.48;;;;;;;-0.48;100.00;101485.16;7390687;19;20197;-54
2022/12/19 07:40:51;;;;;;;34.60;14.43;;;;;;;-0.53;100.00;101481.25;7392958;19;20127;-56
2022/12/19 07:43:21;;;;;;;37.40;15.82;;;;;;;-0.53;100.00;101482.94;7390998;19;20205;-58
2022/12/19 07:45:55;;;;;;;27.50;12.13;;;;;;;-0.59;100.00;101485.72;7390957;19;20187;-59
2022/12/19 07:48:25;;;;;;;30.17;12.85;;;;;;;-0.70;100.00;101487.22;7389361;19;20668;-55
2022/12/19 07:50:57;;;;;;;30.55;13.30;;;;;;;-0.73;100.00;101487.81;7392749;19;20131;-53
2022/12/19 07:53:27;;;;;;;42.97;15.50;;;;;;;-0.73;100.00;101486.91;7389640;19;20194;-57
2022/12/19 07:55:56;;;;;;;28.77;14.10;;;;;;;-0.77;100.00;101490.78;7391389;19;20176;-55
2022/12/19 07:58:26;;;;;;;32.28;15.27;;;;;;;-0.68;100.00;101506.91;7389133;19;20677;-55
2022/12/19 08:00:56;;;;;;;30.60;13.82;;;;;;;-0.79;100.00;101512.53;7392372;19;20489;-53
2022/12/19 08:03:27;;;;;;;33.60;13.82;;;;;;;-0.82;100.00;101517.31;7388567;19;20210;-52
2022/12/19 08:06:04;;;;;;;35.15;13.88;;;;;;;-0.89;100.00;101541.13;7390940;19;20681;-56
2022/12/19 08:08:36;;;;;;;27.95;13.63;;;;;;;-0.78;100.00;101554.00;7388732;19;20198;-54
2022/12/19 08:11:15;;;;;;;32.35;14.60;;;;;;;-0.76;100.00;101576.22;7396007;19;20146;-55
2022/12/19 08:13:45;;;;;;;35.30;15.85;;;;;;;-0.81;100.00;101569.78;7389782;19;20190;-55
2022/12/19 08:16:16;;;;;;;35.08;15.05;;;;;;;-0.73;100.00;101563.84;7392116;19;20226;-51
2022/12/19 08:18:46;;;;;;;30.70;14.23;;;;;;;-0.77;100.00;101587.06;7387589;19;20190;-55
2022/12/19 08:21:18;;;;;;;31.10;14.10;;;;;;;-0.70;100.00;101602.19;7391721;19;20144;-54
2022/12/19 08:23:48;;;;;;;41.28;15.43;;;;;;;-0.68;100.00;101623.50;7388899;19;20190;-52
2022/12/19 08:26:23;;;;;;;39.05;15.98;;;;;;;-0.64;100.00;101623.81;7394175;19;20162;-51
2022/12/19 08:28:56;;;;;;;33.80;14.85;;;;;;;-0.65;100.00;101657.50;7388911;19;20222;-56
2022/12/19 08:31:27;;;;;;;30.15;15.02;;;;;;;-0.66;100.00;101694.66;7391222;19;20127;-51
2022/12/19 08:33:58;;;;;;;37.22;15.18;;;;;;;-0.65;100.00;101693.91;7388659;19;20198;-55
2022/12/19 08:36:30;;;;;;;38.47;17.15;;;;;;;-0.57;100.00;101676.91;7390164;19;20186;-54
2022/12/19 08:39:00;;;;;;;42.42;17.58;;;;;;;-0.63;100.00;101673.75;7365474;19;20551;-53
2022/12/19 08:41:29;;;;;;;32.03;14.85;;;;;;;-0.59;100.00;101655.59;7391635;19;20146;-54
2022/12/19 08:43:59;;;;;;;46.60;16.38;;;;;;;-0.56;100.00;101646.66;7388139;19;20672;-56
2022/12/19 08:46:29;;;;;;;39.67;17.10;;;;;;;-0.50;100.00;101632.81;7392282;19;20174;-56
2022/12/19 08:49:00;;;;;;;40.00;17.02;;;;;;;-0.48;100.00;101617.00;7388025;19;20190;-57
2022/12/19 08:51:32;;;;;;;36.00;15.35;;;;;;;-0.49;100.00;101611.78;7390799;19;20131;-55
2022/12/19 08:54:02;;;;;;;35.65;16.33;;;;;;;-0.48;100.00;101591.66;7386679;19;20246;-54
2022/12/19 08:56:36;;;;;;;46.05;19.38;;;;;;;-0.39;100.00;101575.53;7392412;19;20277;-57
2022/12/19 08:59:11;;;;;;;41.33;16.92;;;;;;;-0.48;100.00;101551.09;7389252;19;20762;-56
2022/12/19 09:01:43;;;;;;;35.70;16.35;;;;;;;-0.42;100.00;101531.41;7386419;19;20139;-56
2022/12/19 09:04:13;;;;;;;36.85;16.85;;;;;;;-0.45;100.00;101510.78;7389644;19;20142;-53
2022/12/19 09:07:05;;;;;;;43.08;17.92;;;;;;;-0.42;100.00;101500.06;7387053;19;20281;-55
2022/12/19 09:09:35;;;;;;;44.30;17.50;;;;;;;-0.42;100.00;101484.84;7389406;19;20139;-56
2022/12/19 09:12:06;;;;;;;36.38;15.80;;;;;;;-0.44;100.00;101469.50;7387701;19;20190;-58
2022/12/19 09:14:35;;;;;;;39.15;17.85;;;;;;;-0.42;100.00;101464.56;7389443;19;20127;-52
2022/12/19 09:17:05;;;;;;;44.47;16.17;;;;;;;-0.43;100.00;101448.47;7387445;19;20182;-54
2022/12/19 09:19:35;;;;;;;42.55;17.20;;;;;;;-0.32;100.00;101434.28;7387946;19;20127;-58
2022/12/19 09:22:08;;;;;;;40.15;17.33;;;;;;;-0.33;100.00;101416.38;7386495;19;20186;-53
2022/12/19 09:24:37;;;;;;;41.72;16.58;;;;;;;-0.33;100.00;101403.69;7388162;19;20131;-53
2022/12/19 09:27:07;;;;;;;50.30;20.23;;;;;;;-0.30;100.00;101393.84;7385383;19;20194;-59
2022/12/19 09:29:36;;;;;;;44.03;17.60;;;;;;;-0.29;100.00;101385.50;7389428;19;20131;-57
2022/12/19 09:32:07;;;;;;;40.63;18.13;;;;;;;-0.31;100.00;101379.38;7392916;19;20198;-54
2022/12/19 09:34:37;;;;;;;42.03;17.90;;;;;;;-0.32;100.00;101375.03;7396301;19;20155;-58
2022/12/19 09:37:12;;;;;;;34.97;16.08;;;;;;;-0.36;100.00;101368.78;7394654;19;20198;-59
2022/12/19 09:39:46;;;;;;;37.40;17.15;;;;;;;-0.38;100.00;101342.41;7395984;19;20602;-55
2022/12/19 09:42:41;;;;;;;38.28;16.95;;;;;;;-0.36;100.00;101347.63;7392159;19;20540;-54
2022/12/19 09:45:21;;;;;;;41.90;18.20;;;;;;;-0.31;100.00;101333.75;7398262;19;20178;-54
2022/12/19 09:48:01;;;;;;;38.25;16.75;;;;;;;-0.28;100.00;101326.41;7393839;19;20201;-54
2022/12/19 09:50:41;;;;;;;37.63;17.00;;;;;;;-0.28;100.00;101317.16;7396103;19;20148;-58
2022/12/19 09:53:18;;;;;;;41.83;17.83;;;;;;;-0.23;100.00;101294.75;7394471;19;20193;-56
2022/12/19 09:55:49;;;;;;;38.22;16.75;;;;;;;-0.23;100.00;101289.69;7394757;19;20513;-57
2022/12/19 09:58:29;;;;;;;46.67;18.60;;;;;;;-0.24;100.00;101282.84;7393049;19;20214;-54
2022/12/19 10:01:00;;;;;;;43.05;18.00;;;;;;;-0.21;100.00;101275.50;7396091;19;20127;-55
2022/12/19 10:03:32;;;;;;;45.40;19.33;;;;;;;-0.20;100.00;101266.25;7393058;19;20214;-56
2022/12/19 10:06:16;;;;;;;40.05;17.58;;;;;;;-0.20;100.00;101256.13;7394733;19;20170;-54
2022/12/19 10:09:13;;;;;;;41.42;17.98;;;;;;;-0.20;100.00;101244.31;7392102;19;20193;-56
2022/12/19 10:12:13;;;;;;;39.75;17.85;;;;;;;-0.15;100.00;101243.09;7393821;19;20665;-54
2022/12/19 10:15:07;;;;;;;39.40;17.85;;;;;;;-0.14;100.00;101244.00;7394986;19;20605;-54
2022/12/19 10:17:59;;;;;;;38.25;17.17;;;;;;;-0.12;100.00;101231.47;7395855;19;20218;-57
2022/12/19 10:20:31;;;;;;;32.42;15.35;;;;;;;-0.11;100.00;101230.72;7394696;19;20147;-52
2022/12/19 10:23:19;;;;;;;34.33;15.95;;;;;;;-0.07;100.00;101230.22;7392742;19;20251;-52
2022/12/19 10:26:01;;;;;;;36.42;16.35;;;;;;;-0.03;100.00;101222.16;7393506;19;20167;-53
2022/12/19 10:28:42;;;;;;;36.78;16.52;;;;;;;0.02;100.00;101236.16;7392378;19;20194;-57
2022/12/19 10:31:18;;;;;;;38.75;16.83;;;;;;;0.01;100.00;101218.25;7395052;19;20146;-57
2022/12/19 10:33:57;;;;;;;38.55;16.40;;;;;;;0.07;100.00;101209.56;7391966;19;20607;-57
2022/12/19 10:36:26;;;;;;;36.85;16.30;;;;;;;0.15;100.00;101206.81;7393492;19;20143;-57
2022/12/19 10:39:25;;;;;;;35.15;17.60;;;;;;;0.20;100.00;101196.31;7394163;19;20190;-56
2022/12/19 10:42:01;;;;;;;32.33;14.65;;;;;;;0.25;100.00;101184.94;7390461;19;20139;-52
2022/12/19 10:44:31;;;;;;;36.85;16.40;;;;;;;0.35;100.00;101170.53;7394001;19;20585;-56
2022/12/19 10:47:01;;;;;;;35.08;15.60;;;;;;;0.35;100.00;101148.59;7393122;19;20134;-58
2022/12/19 10:49:33;;;;;;;44.03;19.05;;;;;;;0.40;100.00;101133.75;7393387;19;20488;-53
2022/12/19 10:52:04;;;;;;;32.78;14.18;;;;;;;0.40;100.00;101134.66;7391357;19;20123;-55
2022/12/19 10:54:42;;;;;;;40.50;16.00;;;;;;;0.46;100.00;101113.09;7394107;19;20131;-51
2022/12/19 10:57:26;;;;;;;40.63;17.60;;;;;;;0.46;100.00;101102.94;7391977;19;20198;-52
2022/12/19 10:59:57;;;;;;;38.72;16.63;;;;;;;0.55;100.00;101093.59;7393472;19;20123;-52
2022/12/19 11:02:35;;;;;;;36.10;16.60;;;;;;;0.56;100.00;101072.50;7392076;19;20637;-55
2022/12/19 11:05:08;;;;;;;39.80;16.88;;;;;;;0.60;100.00;101069.50;7392684;19;20505;-56
2022/12/19 11:07:38;;;;;;;42.90;19.38;;;;;;;0.63;100.00;101061.25;7390390;19;20233;-59
2022/12/19 11:10:37;;;;;;;41.35;18.63;;;;;;;0.64;100.00;101046.16;7393679;19;20127;-52
2022/12/19 11:13:30;;;;;;;38.63;17.45;;;;;;;0.63;100.00;101048.56;7389790;19;20261;-54
2022/12/19 11:16:25;;;;;;;40.83;18.05;;;;;;;0.66;100.00;101031.00;7394133;19;20166;-55
2022/12/19 11:19:22;;;;;;;42.42;19.40;;;;;;;0.68;100.00;101016.81;7396285;19;20190;-56
2022/12/19 11:22:18;;;;;;;46.80;21.17;;;;;;;0.69;100.00;101012.63;7390601;19;20198;-56
2022/12/19 11:25:15;;;;;;;45.15;18.75;;;;;;;0.77;100.00;100983.69;7392945;19;20171;-54
2022/12/19 11:28:06;;;;;;;42.78;18.73;;;;;;;0.72;100.00;100984.94;7390355;19;20196;-57
2022/12/19 11:31:17;;;;;;;39.20;17.80;;;;;;;0.74;100.00;100978.34;7396002;19;20139;-53
2022/12/19 11:34:08;;;;;;;43.17;16.80;;;;;;;0.78;100.00;100970.22;7390575;19;20198;-53
2022/12/19 11:36:44;;;;;;;40.78;17.17;;;;;;;0.79;100.00;100972.00;7391323;19;20190;-56
2022/12/19 11:39:18;;;;;;;38.50;16.88;;;;;;;0.85;100.00;100951.28;7390435;19;20182;-52